sensor_id;sensor_type;location;lat;lon;timestamp;P1;durP1;ratioP1;P2;durP2;ratioP2
4317;SDS011;2172;53.576;9.934;2023-07-08T00:00:37;8.30;;;7.50;;
4317;SDS011;2172;53.576;9.934;2023-07-08T00:03:05;7.63;;;6.73;;
4317;SDS011;2172;53.576;9.934;2023-07-08T00:05:34;10.30;;;7.33;;
4317;SDS011;2172;53.576;9.934;2023-07-08T00:08:03;7.30;;;6.63;;
4317;SDS011;2172;53.576;9.934;2023-07-08T00:10:31;7.80;;;6.37;;
4317;SDS011;2172;53.576;9.934;2023-07-08T00:12:58;7.87;;;7.00;;
4317;SDS011;2172;53.576;9.934;2023-07-08T00:15:26;8.93;;;6.97;;
4317;SDS011;2172;53.576;9.934;2023-07-08T00:17:54;10.70;;;6.90;;
4317;SDS011;2172;53.576;9.934;2023-07-08T00:20:38;8.63;;;7.80;;
4317;SDS011;2172;53.576;9.934;2023-07-08T00:23:07;9.57;;;8.50;;
4317;SDS011;2172;53.576;9.934;2023-07-08T00:25:36;7.33;;;6.60;;
4317;SDS011;2172;53.576;9.934;2023-07-08T00:28:04;8.20;;;7.40;;
4317;SDS011;2172;53.576;9.934;2023-07-08T00:30:34;8.27;;;7.50;;
4317;SDS011;2172;53.576;9.934;2023-07-08T00:33:02;8.97;;;8.07;;
4317;SDS011;2172;53.576;9.934;2023-07-08T00:35:31;11.00;;;7.53;;
4317;SDS011;2172;53.576;9.934;2023-07-08T00:38:00;9.57;;;7.60;;
4317;SDS011;2172;53.576;9.934;2023-07-08T00:40:28;7.20;;;6.47;;
4317;SDS011;2172;53.576;9.934;2023-07-08T00:42:58;9.40;;;7.80;;
4317;SDS011;2172;53.576;9.934;2023-07-08T00:45:38;12.77;;;8.47;;
4317;SDS011;2172;53.576;9.934;2023-07-08T00:48:16;9.27;;;8.37;;
4317;SDS011;2172;53.576;9.934;2023-07-08T00:50:48;8.73;;;7.00;;
4317;SDS011;2172;53.576;9.934;2023-07-08T00:53:23;8.97;;;8.07;;
4317;SDS011;2172;53.576;9.934;2023-07-08T00:55:52;8.00;;;7.30;;
4317;SDS011;2172;53.576;9.934;2023-07-08T00:58:22;9.57;;;8.10;;
4317;SDS011;2172;53.576;9.934;2023-07-08T01:00:51;12.60;;;7.83;;
4317;SDS011;2172;53.576;9.934;2023-07-08T01:03:22;8.80;;;7.47;;
4317;SDS011;2172;53.576;9.934;2023-07-08T01:05:51;9.97;;;8.37;;
4317;SDS011;2172;53.576;9.934;2023-07-08T01:08:22;13.57;;;8.30;;
4317;SDS011;2172;53.576;9.934;2023-07-08T01:10:54;9.93;;;8.63;;
4317;SDS011;2172;53.576;9.934;2023-07-08T01:13:26;13.20;;;7.67;;
4317;SDS011;2172;53.576;9.934;2023-07-08T01:15:55;9.20;;;7.30;;
4317;SDS011;2172;53.576;9.934;2023-07-08T01:18:22;9.10;;;8.20;;
4317;SDS011;2172;53.576;9.934;2023-07-08T01:20:52;9.03;;;8.17;;
4317;SDS011;2172;53.576;9.934;2023-07-08T01:23:22;8.67;;;7.77;;
4317;SDS011;2172;53.576;9.934;2023-07-08T01:25:50;9.20;;;8.30;;
4317;SDS011;2172;53.576;9.934;2023-07-08T01:28:18;9.83;;;7.50;;
4317;SDS011;2172;53.576;9.934;2023-07-08T01:30:47;9.30;;;8.43;;
4317;SDS011;2172;53.576;9.934;2023-07-08T01:33:17;8.20;;;7.50;;
4317;SDS011;2172;53.576;9.934;2023-07-08T01:35:47;9.33;;;8.10;;
4317;SDS011;2172;53.576;9.934;2023-07-08T01:38:16;8.47;;;7.57;;
4317;SDS011;2172;53.576;9.934;2023-07-08T01:40:50;8.60;;;7.80;;
4317;SDS011;2172;53.576;9.934;2023-07-08T01:43:19;13.37;;;8.80;;
4317;SDS011;2172;53.576;9.934;2023-07-08T01:45:46;9.50;;;8.60;;
4317;SDS011;2172;53.576;9.934;2023-07-08T01:48:15;9.53;;;8.63;;
4317;SDS011;2172;53.576;9.934;2023-07-08T01:50:46;10.50;;;8.43;;
4317;SDS011;2172;53.576;9.934;2023-07-08T01:53:16;8.93;;;8.03;;
4317;SDS011;2172;53.576;9.934;2023-07-08T01:55:45;8.20;;;7.40;;
4317;SDS011;2172;53.576;9.934;2023-07-08T01:58:14;11.67;;;9.20;;
4317;SDS011;2172;53.576;9.934;2023-07-08T02:00:42;8.77;;;7.93;;
4317;SDS011;2172;53.576;9.934;2023-07-08T02:03:09;9.97;;;8.97;;
4317;SDS011;2172;53.576;9.934;2023-07-08T02:05:37;8.50;;;7.70;;
4317;SDS011;2172;53.576;9.934;2023-07-08T02:08:05;10.03;;;8.30;;
4317;SDS011;2172;53.576;9.934;2023-07-08T02:10:32;10.00;;;7.90;;
4317;SDS011;2172;53.576;9.934;2023-07-08T02:13:00;10.47;;;8.63;;
4317;SDS011;2172;53.576;9.934;2023-07-08T02:15:29;8.80;;;8.00;;
4317;SDS011;2172;53.576;9.934;2023-07-08T02:17:56;9.40;;;8.50;;
4317;SDS011;2172;53.576;9.934;2023-07-08T02:20:24;10.33;;;9.33;;
4317;SDS011;2172;53.576;9.934;2023-07-08T02:22:51;9.60;;;8.60;;
4317;SDS011;2172;53.576;9.934;2023-07-08T02:25:19;10.17;;;8.93;;
4317;SDS011;2172;53.576;9.934;2023-07-08T02:27:46;9.03;;;8.23;;
4317;SDS011;2172;53.576;9.934;2023-07-08T02:30:14;9.20;;;8.33;;
4317;SDS011;2172;53.576;9.934;2023-07-08T02:32:43;8.97;;;8.10;;
4317;SDS011;2172;53.576;9.934;2023-07-08T02:35:14;9.27;;;8.37;;
4317;SDS011;2172;53.576;9.934;2023-07-08T02:37:41;9.80;;;8.50;;
4317;SDS011;2172;53.576;9.934;2023-07-08T02:40:09;12.63;;;8.80;;
4317;SDS011;2172;53.576;9.934;2023-07-08T02:42:37;10.53;;;8.80;;
4317;SDS011;2172;53.576;9.934;2023-07-08T02:45:05;9.77;;;8.87;;
4317;SDS011;2172;53.576;9.934;2023-07-08T02:47:34;10.03;;;7.97;;
4317;SDS011;2172;53.576;9.934;2023-07-08T02:50:03;10.23;;;8.50;;
4317;SDS011;2172;53.576;9.934;2023-07-08T02:52:31;10.20;;;8.27;;
4317;SDS011;2172;53.576;9.934;2023-07-08T02:54:59;9.20;;;8.30;;
4317;SDS011;2172;53.576;9.934;2023-07-08T02:57:26;10.60;;;8.20;;
4317;SDS011;2172;53.576;9.934;2023-07-08T02:59:54;9.00;;;7.90;;
4317;SDS011;2172;53.576;9.934;2023-07-08T03:02:21;10.07;;;9.00;;
4317;SDS011;2172;53.576;9.934;2023-07-08T03:04:49;11.73;;;8.80;;
4317;SDS011;2172;53.576;9.934;2023-07-08T03:07:21;9.50;;;8.60;;
4317;SDS011;2172;53.576;9.934;2023-07-08T03:09:48;8.80;;;8.00;;
4317;SDS011;2172;53.576;9.934;2023-07-08T03:12:16;10.20;;;9.20;;
4317;SDS011;2172;53.576;9.934;2023-07-08T03:14:43;9.67;;;8.60;;
4317;SDS011;2172;53.576;9.934;2023-07-08T03:17:11;10.10;;;7.70;;
4317;SDS011;2172;53.576;9.934;2023-07-08T03:19:39;10.67;;;8.73;;
4317;SDS011;2172;53.576;9.934;2023-07-08T03:22:07;12.07;;;8.57;;
4317;SDS011;2172;53.576;9.934;2023-07-08T03:24:36;11.10;;;8.97;;
4317;SDS011;2172;53.576;9.934;2023-07-08T03:27:14;11.10;;;9.13;;
4317;SDS011;2172;53.576;9.934;2023-07-08T03:29:43;9.93;;;9.00;;
4317;SDS011;2172;53.576;9.934;2023-07-08T03:32:11;10.57;;;8.10;;
4317;SDS011;2172;53.576;9.934;2023-07-08T03:34:40;9.47;;;8.50;;
4317;SDS011;2172;53.576;9.934;2023-07-08T03:37:08;18.90;;;8.80;;
4317;SDS011;2172;53.576;9.934;2023-07-08T03:39:37;9.03;;;8.30;;
4317;SDS011;2172;53.576;9.934;2023-07-08T03:42:05;10.03;;;9.10;;
4317;SDS011;2172;53.576;9.934;2023-07-08T03:44:33;9.23;;;7.77;;
4317;SDS011;2172;53.576;9.934;2023-07-08T03:47:00;10.43;;;8.77;;
4317;SDS011;2172;53.576;9.934;2023-07-08T03:49:28;9.90;;;8.50;;
4317;SDS011;2172;53.576;9.934;2023-07-08T03:51:56;9.50;;;8.60;;
4317;SDS011;2172;53.576;9.934;2023-07-08T03:54:24;8.60;;;7.87;;
4317;SDS011;2172;53.576;9.934;2023-07-08T03:56:56;8.70;;;7.80;;
4317;SDS011;2172;53.576;9.934;2023-07-08T03:59:25;9.03;;;8.13;;
4317;SDS011;2172;53.576;9.934;2023-07-08T04:01:55;8.77;;;8.00;;
4317;SDS011;2172;53.576;9.934;2023-07-08T04:04:24;9.10;;;7.37;;
4317;SDS011;2172;53.576;9.934;2023-07-08T04:06:52;8.53;;;7.63;;
4317;SDS011;2172;53.576;9.934;2023-07-08T04:09:20;8.47;;;7.67;;
4317;SDS011;2172;53.576;9.934;2023-07-08T04:11:47;14.70;;;7.87;;
4317;SDS011;2172;53.576;9.934;2023-07-08T04:14:16;8.43;;;7.67;;
4317;SDS011;2172;53.576;9.934;2023-07-08T04:16:45;8.50;;;7.60;;
4317;SDS011;2172;53.576;9.934;2023-07-08T04:19:16;7.50;;;6.83;;
4317;SDS011;2172;53.576;9.934;2023-07-08T04:21:44;7.30;;;6.57;;
4317;SDS011;2172;53.576;9.934;2023-07-08T04:24:13;8.07;;;7.30;;
4317;SDS011;2172;53.576;9.934;2023-07-08T04:26:41;8.07;;;7.27;;
4317;SDS011;2172;53.576;9.934;2023-07-08T04:29:11;7.53;;;6.80;;
4317;SDS011;2172;53.576;9.934;2023-07-08T04:31:41;7.83;;;7.10;;
4317;SDS011;2172;53.576;9.934;2023-07-08T04:34:09;8.10;;;7.40;;
4317;SDS011;2172;53.576;9.934;2023-07-08T04:36:36;7.50;;;6.77;;
4317;SDS011;2172;53.576;9.934;2023-07-08T04:39:04;7.27;;;6.57;;
4317;SDS011;2172;53.576;9.934;2023-07-08T04:41:33;7.50;;;6.80;;
4317;SDS011;2172;53.576;9.934;2023-07-08T04:44:06;8.00;;;6.90;;
4317;SDS011;2172;53.576;9.934;2023-07-08T04:46:34;7.27;;;6.67;;
4317;SDS011;2172;53.576;9.934;2023-07-08T04:49:05;7.53;;;6.70;;
4317;SDS011;2172;53.576;9.934;2023-07-08T04:51:34;8.40;;;6.20;;
4317;SDS011;2172;53.576;9.934;2023-07-08T04:54:02;6.87;;;5.90;;
4317;SDS011;2172;53.576;9.934;2023-07-08T04:56:35;7.03;;;6.33;;
4317;SDS011;2172;53.576;9.934;2023-07-08T04:59:03;6.20;;;5.60;;
4317;SDS011;2172;53.576;9.934;2023-07-08T05:01:31;5.90;;;5.40;;
4317;SDS011;2172;53.576;9.934;2023-07-08T05:03:59;7.10;;;6.50;;
4317;SDS011;2172;53.576;9.934;2023-07-08T05:06:28;6.60;;;6.00;;
4317;SDS011;2172;53.576;9.934;2023-07-08T05:08:55;8.43;;;6.47;;
4317;SDS011;2172;53.576;9.934;2023-07-08T05:11:24;7.67;;;6.10;;
4317;SDS011;2172;53.576;9.934;2023-07-08T05:13:51;6.63;;;6.00;;
4317;SDS011;2172;53.576;9.934;2023-07-08T05:16:19;6.60;;;6.07;;
4317;SDS011;2172;53.576;9.934;2023-07-08T05:18:46;6.10;;;5.50;;
4317;SDS011;2172;53.576;9.934;2023-07-08T05:21:14;6.30;;;5.60;;
4317;SDS011;2172;53.576;9.934;2023-07-08T05:23:45;7.30;;;5.90;;
4317;SDS011;2172;53.576;9.934;2023-07-08T05:26:14;6.73;;;5.60;;
4317;SDS011;2172;53.576;9.934;2023-07-08T05:28:42;6.50;;;5.90;;
4317;SDS011;2172;53.576;9.934;2023-07-08T05:31:09;6.00;;;5.50;;
4317;SDS011;2172;53.576;9.934;2023-07-08T05:33:37;8.63;;;6.27;;
4317;SDS011;2172;53.576;9.934;2023-07-08T05:36:04;7.03;;;5.13;;
4317;SDS011;2172;53.576;9.934;2023-07-08T05:38:32;6.30;;;5.67;;
4317;SDS011;2172;53.576;9.934;2023-07-08T05:41:01;6.43;;;5.53;;
4317;SDS011;2172;53.576;9.934;2023-07-08T05:43:29;5.60;;;5.10;;
4317;SDS011;2172;53.576;9.934;2023-07-08T05:45:59;5.10;;;4.60;;
4317;SDS011;2172;53.576;9.934;2023-07-08T05:48:27;7.50;;;5.33;;
4317;SDS011;2172;53.576;9.934;2023-07-08T05:50:55;6.80;;;4.87;;
4317;SDS011;2172;53.576;9.934;2023-07-08T05:53:23;5.60;;;4.93;;
4317;SDS011;2172;53.576;9.934;2023-07-08T05:55:50;5.63;;;5.13;;
4317;SDS011;2172;53.576;9.934;2023-07-08T05:58:19;5.60;;;4.67;;
4317;SDS011;2172;53.576;9.934;2023-07-08T06:00:47;5.37;;;4.70;;
4317;SDS011;2172;53.576;9.934;2023-07-08T06:03:20;5.30;;;4.80;;
4317;SDS011;2172;53.576;9.934;2023-07-08T06:05:48;5.20;;;4.80;;
4317;SDS011;2172;53.576;9.934;2023-07-08T06:08:15;8.03;;;5.30;;
4317;SDS011;2172;53.576;9.934;2023-07-08T06:10:43;6.77;;;5.20;;
4317;SDS011;2172;53.576;9.934;2023-07-08T06:13:11;5.77;;;4.60;;
4317;SDS011;2172;53.576;9.934;2023-07-08T06:15:41;5.40;;;4.80;;
4317;SDS011;2172;53.576;9.934;2023-07-08T06:18:09;5.90;;;5.03;;
4317;SDS011;2172;53.576;9.934;2023-07-08T06:20:36;6.23;;;4.40;;
4317;SDS011;2172;53.576;9.934;2023-07-08T06:23:04;7.47;;;5.70;;
4317;SDS011;2172;53.576;9.934;2023-07-08T06:25:32;4.90;;;4.33;;
4317;SDS011;2172;53.576;9.934;2023-07-08T06:27:59;8.70;;;4.87;;
4317;SDS011;2172;53.576;9.934;2023-07-08T06:30:27;9.27;;;4.40;;
4317;SDS011;2172;53.576;9.934;2023-07-08T06:32:56;8.90;;;4.10;;
4317;SDS011;2172;53.576;9.934;2023-07-08T06:35:24;5.20;;;4.73;;
4317;SDS011;2172;53.576;9.934;2023-07-08T06:37:51;10.17;;;4.90;;
4317;SDS011;2172;53.576;9.934;2023-07-08T06:40:18;5.63;;;4.60;;
4317;SDS011;2172;53.576;9.934;2023-07-08T06:42:46;8.27;;;4.70;;
4317;SDS011;2172;53.576;9.934;2023-07-08T06:45:40;7.77;;;4.70;;
4317;SDS011;2172;53.576;9.934;2023-07-08T06:48:10;9.70;;;4.90;;
4317;SDS011;2172;53.576;9.934;2023-07-08T06:50:38;4.87;;;4.37;;
4317;SDS011;2172;53.576;9.934;2023-07-08T06:53:07;8.00;;;4.57;;
4317;SDS011;2172;53.576;9.934;2023-07-08T06:55:35;4.57;;;4.17;;
4317;SDS011;2172;53.576;9.934;2023-07-08T06:58:02;7.00;;;5.40;;
4317;SDS011;2172;53.576;9.934;2023-07-08T07:00:30;5.50;;;4.80;;
4317;SDS011;2172;53.576;9.934;2023-07-08T07:02:57;6.47;;;5.10;;
4317;SDS011;2172;53.576;9.934;2023-07-08T07:05:26;4.73;;;4.30;;
4317;SDS011;2172;53.576;9.934;2023-07-08T07:07:54;12.63;;;4.60;;
4317;SDS011;2172;53.576;9.934;2023-07-08T07:10:22;4.83;;;4.30;;
4317;SDS011;2172;53.576;9.934;2023-07-08T07:12:49;5.00;;;4.50;;
4317;SDS011;2172;53.576;9.934;2023-07-08T07:15:17;5.03;;;4.53;;
4317;SDS011;2172;53.576;9.934;2023-07-08T07:17:44;4.70;;;4.27;;
4317;SDS011;2172;53.576;9.934;2023-07-08T07:20:12;6.00;;;4.33;;
4317;SDS011;2172;53.576;9.934;2023-07-08T07:22:41;4.87;;;4.37;;
4317;SDS011;2172;53.576;9.934;2023-07-08T07:25:09;6.83;;;4.80;;
4317;SDS011;2172;53.576;9.934;2023-07-08T07:27:36;5.80;;;4.40;;
4317;SDS011;2172;53.576;9.934;2023-07-08T07:30:04;4.47;;;4.07;;
4317;SDS011;2172;53.576;9.934;2023-07-08T07:32:33;8.03;;;4.27;;
4317;SDS011;2172;53.576;9.934;2023-07-08T07:35:00;4.30;;;3.80;;
4317;SDS011;2172;53.576;9.934;2023-07-08T07:37:28;4.70;;;4.30;;
4317;SDS011;2172;53.576;9.934;2023-07-08T07:39:57;5.30;;;4.20;;
4317;SDS011;2172;53.576;9.934;2023-07-08T07:42:26;4.50;;;4.10;;
4317;SDS011;2172;53.576;9.934;2023-07-08T07:44:54;4.57;;;4.17;;
4317;SDS011;2172;53.576;9.934;2023-07-08T07:47:21;5.07;;;4.10;;
4317;SDS011;2172;53.576;9.934;2023-07-08T07:49:49;4.13;;;3.83;;
4317;SDS011;2172;53.576;9.934;2023-07-08T07:52:16;5.07;;;4.57;;
4317;SDS011;2172;53.576;9.934;2023-07-08T07:54:49;4.47;;;4.07;;
4317;SDS011;2172;53.576;9.934;2023-07-08T07:57:18;4.60;;;4.20;;
4317;SDS011;2172;53.576;9.934;2023-07-08T07:59:46;5.60;;;4.60;;
4317;SDS011;2172;53.576;9.934;2023-07-08T08:02:15;4.30;;;3.90;;
4317;SDS011;2172;53.576;9.934;2023-07-08T08:04:42;4.50;;;4.10;;
4317;SDS011;2172;53.576;9.934;2023-07-08T08:07:10;5.50;;;4.47;;
4317;SDS011;2172;53.576;9.934;2023-07-08T08:09:38;4.53;;;4.13;;
4317;SDS011;2172;53.576;9.934;2023-07-08T08:12:07;4.80;;;4.40;;
4317;SDS011;2172;53.576;9.934;2023-07-08T08:14:36;4.87;;;4.47;;
4317;SDS011;2172;53.576;9.934;2023-07-08T08:17:04;4.07;;;3.73;;
4317;SDS011;2172;53.576;9.934;2023-07-08T08:19:32;4.97;;;4.00;;
4317;SDS011;2172;53.576;9.934;2023-07-08T08:21:59;4.97;;;4.47;;
4317;SDS011;2172;53.576;9.934;2023-07-08T08:24:27;6.10;;;4.50;;
4317;SDS011;2172;53.576;9.934;2023-07-08T08:26:54;4.73;;;4.27;;
4317;SDS011;2172;53.576;9.934;2023-07-08T08:29:22;6.70;;;5.00;;
4317;SDS011;2172;53.576;9.934;2023-07-08T08:31:51;4.87;;;4.37;;
4317;SDS011;2172;53.576;9.934;2023-07-08T08:34:19;5.33;;;4.23;;
4317;SDS011;2172;53.576;9.934;2023-07-08T08:36:47;6.07;;;4.80;;
4317;SDS011;2172;53.576;9.934;2023-07-08T08:39:15;4.43;;;4.03;;
4317;SDS011;2172;53.576;9.934;2023-07-08T08:41:42;4.63;;;4.13;;
4317;SDS011;2172;53.576;9.934;2023-07-08T08:44:12;4.57;;;3.97;;
4317;SDS011;2172;53.576;9.934;2023-07-08T08:46:41;5.30;;;4.80;;
4317;SDS011;2172;53.576;9.934;2023-07-08T08:49:18;5.60;;;4.30;;
4317;SDS011;2172;53.576;9.934;2023-07-08T08:51:50;7.00;;;3.80;;
4317;SDS011;2172;53.576;9.934;2023-07-08T08:54:18;6.07;;;4.00;;
4317;SDS011;2172;53.576;9.934;2023-07-08T08:57:06;4.27;;;3.97;;
4317;SDS011;2172;53.576;9.934;2023-07-08T08:59:42;4.90;;;4.40;;
4317;SDS011;2172;53.576;9.934;2023-07-08T09:02:18;7.13;;;4.30;;
4317;SDS011;2172;53.576;9.934;2023-07-08T09:04:55;4.97;;;4.50;;
4317;SDS011;2172;53.576;9.934;2023-07-08T09:07:25;4.73;;;4.33;;
4317;SDS011;2172;53.576;9.934;2023-07-08T09:09:55;6.27;;;3.90;;
4317;SDS011;2172;53.576;9.934;2023-07-08T09:12:27;4.80;;;4.40;;
4317;SDS011;2172;53.576;9.934;2023-07-08T09:14:56;4.70;;;4.20;;
4317;SDS011;2172;53.576;9.934;2023-07-08T09:17:26;4.20;;;3.90;;
4317;SDS011;2172;53.576;9.934;2023-07-08T09:19:59;4.30;;;3.93;;
4317;SDS011;2172;53.576;9.934;2023-07-08T09:22:36;5.60;;;4.50;;
4317;SDS011;2172;53.576;9.934;2023-07-08T09:25:11;5.07;;;4.27;;
4317;SDS011;2172;53.576;9.934;2023-07-08T09:27:48;6.37;;;4.43;;
4317;SDS011;2172;53.576;9.934;2023-07-08T09:30:16;4.90;;;3.77;;
4317;SDS011;2172;53.576;9.934;2023-07-08T09:32:46;4.40;;;4.00;;
4317;SDS011;2172;53.576;9.934;2023-07-08T09:35:18;4.90;;;4.37;;
4317;SDS011;2172;53.576;9.934;2023-07-08T09:37:47;5.00;;;4.60;;
4317;SDS011;2172;53.576;9.934;2023-07-08T09:40:16;5.10;;;3.97;;
4317;SDS011;2172;53.576;9.934;2023-07-08T09:42:46;4.87;;;4.33;;
4317;SDS011;2172;53.576;9.934;2023-07-08T09:45:17;5.00;;;4.10;;
4317;SDS011;2172;53.576;9.934;2023-07-08T09:47:46;5.50;;;4.23;;
4317;SDS011;2172;53.576;9.934;2023-07-08T09:50:20;4.90;;;4.43;;
4317;SDS011;2172;53.576;9.934;2023-07-08T09:52:49;4.77;;;4.37;;
4317;SDS011;2172;53.576;9.934;2023-07-08T09:55:19;5.03;;;4.10;;
4317;SDS011;2172;53.576;9.934;2023-07-08T09:57:48;4.60;;;4.20;;
4317;SDS011;2172;53.576;9.934;2023-07-08T10:00:17;4.73;;;4.17;;
4317;SDS011;2172;53.576;9.934;2023-07-08T10:02:54;4.97;;;4.47;;
4317;SDS011;2172;53.576;9.934;2023-07-08T10:05:27;5.00;;;4.50;;
4317;SDS011;2172;53.576;9.934;2023-07-08T10:07:57;5.00;;;4.50;;
4317;SDS011;2172;53.576;9.934;2023-07-08T10:10:28;4.57;;;4.17;;
4317;SDS011;2172;53.576;9.934;2023-07-08T10:12:59;7.97;;;4.80;;
4317;SDS011;2172;53.576;9.934;2023-07-08T10:15:31;5.07;;;4.33;;
4317;SDS011;2172;53.576;9.934;2023-07-08T10:18:00;5.00;;;4.60;;
4317;SDS011;2172;53.576;9.934;2023-07-08T10:20:35;5.40;;;4.70;;
4317;SDS011;2172;53.576;9.934;2023-07-08T10:23:08;5.13;;;4.50;;
4317;SDS011;2172;53.576;9.934;2023-07-08T10:25:44;6.40;;;4.53;;
4317;SDS011;2172;53.576;9.934;2023-07-08T10:28:28;4.87;;;4.47;;
4317;SDS011;2172;53.576;9.934;2023-07-08T10:31:11;5.00;;;4.57;;
4317;SDS011;2172;53.576;9.934;2023-07-08T10:33:47;5.80;;;5.13;;
4317;SDS011;2172;53.576;9.934;2023-07-08T10:36:26;4.40;;;4.00;;
4317;SDS011;2172;53.576;9.934;2023-07-08T10:39:09;5.03;;;4.53;;
4317;SDS011;2172;53.576;9.934;2023-07-08T10:41:47;5.00;;;4.00;;
4317;SDS011;2172;53.576;9.934;2023-07-08T10:44:21;4.77;;;4.27;;
4317;SDS011;2172;53.576;9.934;2023-07-08T10:46:57;5.30;;;4.80;;
4317;SDS011;2172;53.576;9.934;2023-07-08T10:49:35;5.33;;;4.60;;
4317;SDS011;2172;53.576;9.934;2023-07-08T10:52:20;4.70;;;4.30;;
4317;SDS011;2172;53.576;9.934;2023-07-08T11:00:47;5.17;;;4.60;;
4317;SDS011;2172;53.576;9.934;2023-07-08T11:03:26;5.40;;;4.90;;
4317;SDS011;2172;53.576;9.934;2023-07-08T11:06:12;5.03;;;4.63;;
4317;SDS011;2172;53.576;9.934;2023-07-08T11:08:44;4.80;;;4.40;;
4317;SDS011;2172;53.576;9.934;2023-07-08T11:11:16;4.73;;;4.33;;
4317;SDS011;2172;53.576;9.934;2023-07-08T11:13:54;5.60;;;5.10;;
4317;SDS011;2172;53.576;9.934;2023-07-08T11:16:28;4.53;;;4.13;;
4317;SDS011;2172;53.576;9.934;2023-07-08T11:19:00;5.20;;;4.73;;
4317;SDS011;2172;53.576;9.934;2023-07-08T11:21:31;5.30;;;4.90;;
4317;SDS011;2172;53.576;9.934;2023-07-08T11:24:06;5.00;;;4.60;;
4317;SDS011;2172;53.576;9.934;2023-07-08T11:26:40;5.27;;;4.87;;
4317;SDS011;2172;53.576;9.934;2023-07-08T11:29:13;5.60;;;5.10;;
4317;SDS011;2172;53.576;9.934;2023-07-08T11:31:43;6.20;;;4.40;;
4317;SDS011;2172;53.576;9.934;2023-07-08T11:34:11;5.20;;;4.70;;
4317;SDS011;2172;53.576;9.934;2023-07-08T11:36:40;4.93;;;4.57;;
4317;SDS011;2172;53.576;9.934;2023-07-08T11:44:43;5.63;;;5.03;;
4317;SDS011;2172;53.576;9.934;2023-07-08T11:47:15;5.23;;;4.80;;
4317;SDS011;2172;53.576;9.934;2023-07-08T11:49:46;5.37;;;4.87;;
4317;SDS011;2172;53.576;9.934;2023-07-08T11:52:16;6.30;;;5.33;;
4317;SDS011;2172;53.576;9.934;2023-07-08T11:54:47;5.47;;;4.97;;
4317;SDS011;2172;53.576;9.934;2023-07-08T11:57:24;5.00;;;4.40;;
4317;SDS011;2172;53.576;9.934;2023-07-08T12:00:06;5.30;;;4.80;;
4317;SDS011;2172;53.576;9.934;2023-07-08T12:02:47;4.50;;;4.20;;
4317;SDS011;2172;53.576;9.934;2023-07-08T12:05:16;5.13;;;4.63;;
4317;SDS011;2172;53.576;9.934;2023-07-08T12:07:46;6.40;;;4.60;;
4317;SDS011;2172;53.576;9.934;2023-07-08T12:10:17;5.80;;;4.73;;
4317;SDS011;2172;53.576;9.934;2023-07-08T12:12:57;5.40;;;4.70;;
4317;SDS011;2172;53.576;9.934;2023-07-08T12:15:25;5.20;;;4.70;;
4317;SDS011;2172;53.576;9.934;2023-07-08T12:17:55;5.90;;;4.67;;
4317;SDS011;2172;53.576;9.934;2023-07-08T12:20:24;5.53;;;5.13;;
4317;SDS011;2172;53.576;9.934;2023-07-08T12:22:53;5.00;;;4.60;;
4317;SDS011;2172;53.576;9.934;2023-07-08T12:25:25;5.83;;;4.40;;
4317;SDS011;2172;53.576;9.934;2023-07-08T12:27:56;4.73;;;4.33;;
4317;SDS011;2172;53.576;9.934;2023-07-08T12:30:23;6.63;;;4.67;;
4317;SDS011;2172;53.576;9.934;2023-07-08T12:32:54;4.90;;;4.50;;
4317;SDS011;2172;53.576;9.934;2023-07-08T12:35:25;5.97;;;5.30;;
4317;SDS011;2172;53.576;9.934;2023-07-08T12:37:54;5.23;;;4.80;;
4317;SDS011;2172;53.576;9.934;2023-07-08T12:40:26;4.63;;;4.23;;
4317;SDS011;2172;53.576;9.934;2023-07-08T12:42:54;4.80;;;4.40;;
4317;SDS011;2172;53.576;9.934;2023-07-08T12:45:25;5.57;;;5.07;;
4317;SDS011;2172;53.576;9.934;2023-07-08T12:47:52;5.40;;;4.90;;
4317;SDS011;2172;53.576;9.934;2023-07-08T12:50:20;12.17;;;5.20;;
4317;SDS011;2172;53.576;9.934;2023-07-08T12:52:48;4.60;;;4.30;;
4317;SDS011;2172;53.576;9.934;2023-07-08T12:55:15;5.27;;;4.47;;
4317;SDS011;2172;53.576;9.934;2023-07-08T12:57:45;4.83;;;4.43;;
4317;SDS011;2172;53.576;9.934;2023-07-08T13:00:16;4.97;;;4.47;;
4317;SDS011;2172;53.576;9.934;2023-07-08T13:02:50;5.10;;;4.60;;
4317;SDS011;2172;53.576;9.934;2023-07-08T13:05:23;4.57;;;4.17;;
4317;SDS011;2172;53.576;9.934;2023-07-08T13:07:51;5.00;;;4.60;;
4317;SDS011;2172;53.576;9.934;2023-07-08T13:10:20;8.03;;;4.97;;
4317;SDS011;2172;53.576;9.934;2023-07-08T13:12:53;5.13;;;4.73;;
4317;SDS011;2172;53.576;9.934;2023-07-08T13:15:24;5.67;;;5.17;;
4317;SDS011;2172;53.576;9.934;2023-07-08T13:18:00;5.37;;;4.87;;
4317;SDS011;2172;53.576;9.934;2023-07-08T13:20:28;7.23;;;4.50;;
4317;SDS011;2172;53.576;9.934;2023-07-08T13:22:57;5.43;;;4.90;;
4317;SDS011;2172;53.576;9.934;2023-07-08T13:25:27;5.17;;;4.70;;
4317;SDS011;2172;53.576;9.934;2023-07-08T13:27:58;8.43;;;5.30;;
4317;SDS011;2172;53.576;9.934;2023-07-08T13:30:27;6.23;;;5.30;;
4317;SDS011;2172;53.576;9.934;2023-07-08T13:32:57;5.10;;;4.67;;
4317;SDS011;2172;53.576;9.934;2023-07-08T13:35:26;5.67;;;5.17;;
4317;SDS011;2172;53.576;9.934;2023-07-08T13:37:55;5.30;;;4.80;;
4317;SDS011;2172;53.576;9.934;2023-07-08T13:40:26;5.50;;;5.00;;
4317;SDS011;2172;53.576;9.934;2023-07-08T13:42:54;5.10;;;4.63;;
4317;SDS011;2172;53.576;9.934;2023-07-08T13:45:24;6.07;;;5.07;;
4317;SDS011;2172;53.576;9.934;2023-07-08T13:47:58;7.07;;;5.80;;
4317;SDS011;2172;53.576;9.934;2023-07-08T13:50:41;6.07;;;5.47;;
4317;SDS011;2172;53.576;9.934;2023-07-08T13:53:19;6.20;;;5.70;;
4317;SDS011;2172;53.576;9.934;2023-07-08T13:55:55;6.60;;;6.10;;
4317;SDS011;2172;53.576;9.934;2023-07-08T13:58:26;5.80;;;5.27;;
4317;SDS011;2172;53.576;9.934;2023-07-08T14:00:57;5.70;;;5.20;;
4317;SDS011;2172;53.576;9.934;2023-07-08T14:03:25;5.23;;;4.83;;
4317;SDS011;2172;53.576;9.934;2023-07-08T14:05:52;5.23;;;4.77;;
4317;SDS011;2172;53.576;9.934;2023-07-08T14:08:20;5.23;;;4.73;;
4317;SDS011;2172;53.576;9.934;2023-07-08T14:10:48;5.43;;;5.00;;
4317;SDS011;2172;53.576;9.934;2023-07-08T14:13:15;6.10;;;5.00;;
4317;SDS011;2172;53.576;9.934;2023-07-08T14:15:44;5.27;;;4.87;;
4317;SDS011;2172;53.576;9.934;2023-07-08T14:18:14;5.73;;;5.00;;
4317;SDS011;2172;53.576;9.934;2023-07-08T14:20:41;5.93;;;5.43;;
4317;SDS011;2172;53.576;9.934;2023-07-08T14:23:09;6.27;;;5.70;;
4317;SDS011;2172;53.576;9.934;2023-07-08T14:25:38;5.63;;;5.13;;
4317;SDS011;2172;53.576;9.934;2023-07-08T14:28:06;8.13;;;4.87;;
4317;SDS011;2172;53.576;9.934;2023-07-08T14:30:35;5.87;;;5.37;;
4317;SDS011;2172;53.576;9.934;2023-07-08T14:33:08;5.40;;;4.90;;
4317;SDS011;2172;53.576;9.934;2023-07-08T14:35:38;7.50;;;5.80;;
4317;SDS011;2172;53.576;9.934;2023-07-08T14:38:08;6.50;;;6.00;;
4317;SDS011;2172;53.576;9.934;2023-07-08T14:40:37;6.23;;;5.63;;
4317;SDS011;2172;53.576;9.934;2023-07-08T14:43:06;5.97;;;5.47;;
4317;SDS011;2172;53.576;9.934;2023-07-08T14:45:39;6.10;;;5.50;;
4317;SDS011;2172;53.576;9.934;2023-07-08T14:48:10;5.93;;;5.43;;
4317;SDS011;2172;53.576;9.934;2023-07-08T14:50:39;5.70;;;5.10;;
4317;SDS011;2172;53.576;9.934;2023-07-08T14:53:07;7.80;;;6.00;;
4317;SDS011;2172;53.576;9.934;2023-07-08T14:55:35;5.90;;;5.40;;
4317;SDS011;2172;53.576;9.934;2023-07-08T14:58:03;5.67;;;5.17;;
4317;SDS011;2172;53.576;9.934;2023-07-08T15:00:31;12.83;;;11.73;;
4317;SDS011;2172;53.576;9.934;2023-07-08T15:02:59;6.20;;;5.70;;
4317;SDS011;2172;53.576;9.934;2023-07-08T15:05:27;6.03;;;5.63;;
4317;SDS011;2172;53.576;9.934;2023-07-08T15:07:56;8.17;;;7.47;;
4317;SDS011;2172;53.576;9.934;2023-07-08T15:10:25;6.07;;;5.43;;
4317;SDS011;2172;53.576;9.934;2023-07-08T15:12:55;6.50;;;5.93;;
4317;SDS011;2172;53.576;9.934;2023-07-08T15:15:26;6.53;;;5.93;;
4317;SDS011;2172;53.576;9.934;2023-07-08T15:17:55;6.67;;;6.07;;
4317;SDS011;2172;53.576;9.934;2023-07-08T15:20:24;6.40;;;5.90;;
4317;SDS011;2172;53.576;9.934;2023-07-08T15:22:52;9.40;;;8.20;;
4317;SDS011;2172;53.576;9.934;2023-07-08T15:25:21;6.30;;;5.70;;
4317;SDS011;2172;53.576;9.934;2023-07-08T15:27:49;5.77;;;5.27;;
4317;SDS011;2172;53.576;9.934;2023-07-08T15:30:18;6.10;;;5.50;;
4317;SDS011;2172;53.576;9.934;2023-07-08T15:32:46;8.53;;;7.77;;
4317;SDS011;2172;53.576;9.934;2023-07-08T15:35:15;61.20;;;56.03;;
4317;SDS011;2172;53.576;9.934;2023-07-08T15:37:44;44.20;;;40.40;;
4317;SDS011;2172;53.576;9.934;2023-07-08T15:40:15;11.67;;;10.67;;
4317;SDS011;2172;53.576;9.934;2023-07-08T19:45:41;7.03;;;4.63;;